Sault Ste. Marie, MI

06:26 AM EDT del 05 Agosto 2015 (GMT -0400)
Sault Ste Marie Municipal / Sanderson Field | | Change Station
CLOSE
Current Station
Aeroporto
Location: Sault Ste Marie,
Altitudine: 715 ft
Stazioni meteo nelle vicinanze

Alt. 715 ft 46.48 °N, 84.36 °W | Updated 31 minutes ago

Clear
Sereno
52 °F
Sembra 52 °F
N
4
Vento Variabile Vento da NO

Oggi
Massima -- | Minima -- °F
--% Possibilità di precip.
Ieri
Massima -- | Minima -- °F
Precip. -- in
6:23 AM 9:03 PM
Gobba a levante, 68% visible
Pressione 30.01 in
Visibilità 10.0 miglia
Nuvole Sereno
Punto di rugiada 49 °F
Umidità 89%
Piovosità 0.00 in
Spessore del manto nevoso Non disponibile.
Raggi UV 0 fuori da 12
Polline 6.30 fuori da 12
Qualità dell'aria Non disponibile.
Flu Activity Non disponibile.
METAR KANJ 050955Z AUTO 31003KT 10SM CLR 11/09 A3001 RMK AO2 SLP162 T01110094

More Conditions Fewer Conditions

Pressione 30.01 in
Visibilità 10.0 miglia
Nuvole Sereno
Punto di rugiada 49 °F
Umidità 89%
Piovosità 0.00 in
Spessore del manto nevoso Non disponibile.
Raggi UV 0 fuori da 12
Polline 6.30 fuori da 12
Qualità dell'aria Non disponibile.
Flu Activity Non disponibile.
METAR KANJ 050955Z AUTO 31003KT 10SM CLR 11/09 A3001 RMK AO2 SLP162 T01110094

More Conditions Fewer Conditions

Nowcast | as of 6:00 am EDT on August 5, 2015

At 7 am...mostly clear. Temperature 51. Northwest winds 7 mph. At 9 am...mostly clear. Temperature 55. Northwest winds 8 mph. At 11 am...partly cloudy. Temperature 61. Northwest winds 9 mph. At 1 PM...mostly clear. Temperature 65. Northwest winds 13 mph.

×

10-Day Weather Forecast

×

Almanac

Astronomia

Aug. 05, 2015 Alba Tramonto
Ora attuale
Crepuscolo civile
Crepuscolo nautico
Crepuscolo astronomico
Luna
Estensione della luce visibile
Lunghezza del giorno
Tomorrow will be .
, % of the Moon is Illuminated

Gli estremi di oggi

State Highs State Lows

Community

WunderPhotos

Upload Photos

1,844,113 foto caricate!

WunderBlogs® & News

Nearby

Qualità dell'aria

  Qualità dell'aria Indice AQ Inquinante
Not available.

Profondità neve

Stazione Profondità Altitudine

Attività sismica

Città  Distanza Mag. Data & Ora
Minimo Magnitudo Mostrato è 2.5.

Temperature delle acque costiere

Località Temperatura

Stations

Stazioni meteo nelle vicinanze

Ubicazione della stazione Temp. Raffreddamento del vento Punto di rugiada Umidità Vento Precip. Alt. Aggiornato Tipo